sensor_id;sensor_type;location;lat;lon;timestamp;P1;durP1;ratioP1;P2;durP2;ratioP2
69779;SDS011;57052;55.602;38.096;2022-07-11T00:01:16;9.90;;;5.43;;
69779;SDS011;57052;55.602;38.096;2022-07-11T00:03:43;6.30;;;4.93;;
69779;SDS011;57052;55.602;38.096;2022-07-11T00:06:08;8.00;;;4.80;;
69779;SDS011;57052;55.602;38.096;2022-07-11T00:08:34;6.70;;;4.82;;
69779;SDS011;57052;55.602;38.096;2022-07-11T00:10:59;7.10;;;5.18;;
69779;SDS011;57052;55.602;38.096;2022-07-11T00:13:25;5.90;;;4.70;;
69779;SDS011;57052;55.602;38.096;2022-07-11T00:15:50;10.32;;;5.00;;
69779;SDS011;57052;55.602;38.096;2022-07-11T00:18:16;6.22;;;4.97;;
69779;SDS011;57052;55.602;38.096;2022-07-11T00:20:41;7.38;;;5.40;;
69779;SDS011;57052;55.602;38.096;2022-07-11T00:23:07;6.38;;;4.60;;
69779;SDS011;57052;55.602;38.096;2022-07-11T00:25:32;7.28;;;4.95;;
69779;SDS011;57052;55.602;38.096;2022-07-11T00:27:58;6.32;;;4.88;;
69779;SDS011;57052;55.602;38.096;2022-07-11T00:30:24;7.00;;;4.90;;
69779;SDS011;57052;55.602;38.096;2022-07-11T00:32:49;6.10;;;4.93;;
69779;SDS011;57052;55.602;38.096;2022-07-11T00:35:15;7.03;;;4.60;;
69779;SDS011;57052;55.602;38.096;2022-07-11T00:37:40;7.88;;;4.90;;
69779;SDS011;57052;55.602;38.096;2022-07-11T00:40:06;5.65;;;4.82;;
69779;SDS011;57052;55.602;38.096;2022-07-11T00:42:32;7.40;;;4.75;;
69779;SDS011;57052;55.602;38.096;2022-07-11T00:44:58;7.22;;;4.82;;
69779;SDS011;57052;55.602;38.096;2022-07-11T00:47:23;8.02;;;5.18;;
69779;SDS011;57052;55.602;38.096;2022-07-11T00:49:49;7.18;;;4.90;;
69779;SDS011;57052;55.602;38.096;2022-07-11T00:52:15;9.77;;;4.85;;
69779;SDS011;57052;55.602;38.096;2022-07-11T00:54:40;8.50;;;4.80;;
69779;SDS011;57052;55.602;38.096;2022-07-11T00:57:06;7.13;;;4.85;;
69779;SDS011;57052;55.602;38.096;2022-07-11T00:59:32;7.35;;;4.63;;
69779;SDS011;57052;55.602;38.096;2022-07-11T01:01:58;6.13;;;4.85;;
69779;SDS011;57052;55.602;38.096;2022-07-11T01:04:23;7.43;;;4.88;;
69779;SDS011;57052;55.602;38.096;2022-07-11T01:06:49;6.45;;;4.70;;
69779;SDS011;57052;55.602;38.096;2022-07-11T01:09:15;6.53;;;4.90;;
69779;SDS011;57052;55.602;38.096;2022-07-11T01:11:40;7.40;;;4.90;;
69779;SDS011;57052;55.602;38.096;2022-07-11T01:14:06;7.28;;;5.00;;
69779;SDS011;57052;55.602;38.096;2022-07-11T01:16:31;7.15;;;4.75;;
69779;SDS011;57052;55.602;38.096;2022-07-11T01:18:57;7.03;;;5.10;;
69779;SDS011;57052;55.602;38.096;2022-07-11T01:23:56;7.25;;;5.03;;
69779;SDS011;57052;55.602;38.096;2022-07-11T01:26:23;9.63;;;5.18;;
69779;SDS011;57052;55.602;38.096;2022-07-11T01:28:50;7.90;;;4.88;;
69779;SDS011;57052;55.602;38.096;2022-07-11T01:31:17;7.18;;;4.95;;
69779;SDS011;57052;55.602;38.096;2022-07-11T01:33:44;6.35;;;5.25;;
69779;SDS011;57052;55.602;38.096;2022-07-11T01:36:10;6.80;;;5.25;;
69779;SDS011;57052;55.602;38.096;2022-07-11T01:38:38;8.32;;;5.20;;
69779;SDS011;57052;55.602;38.096;2022-07-11T01:41:04;9.73;;;5.43;;
69779;SDS011;57052;55.602;38.096;2022-07-11T01:43:31;7.38;;;5.70;;
69779;SDS011;57052;55.602;38.096;2022-07-11T01:45:57;7.30;;;5.38;;
69779;SDS011;57052;55.602;38.096;2022-07-11T01:48:23;9.30;;;5.43;;
69779;SDS011;57052;55.602;38.096;2022-07-11T01:50:49;5.97;;;4.90;;
69779;SDS011;57052;55.602;38.096;2022-07-11T01:53:15;7.07;;;5.13;;
69779;SDS011;57052;55.602;38.096;2022-07-11T01:55:41;6.93;;;5.00;;
69779;SDS011;57052;55.602;38.096;2022-07-11T01:58:07;6.75;;;5.70;;
69779;SDS011;57052;55.602;38.096;2022-07-11T02:00:33;9.75;;;5.68;;
69779;SDS011;57052;55.602;38.096;2022-07-11T02:02:59;10.43;;;5.90;;
69779;SDS011;57052;55.602;38.096;2022-07-11T02:05:24;8.48;;;6.00;;
69779;SDS011;57052;55.602;38.096;2022-07-11T02:07:50;8.40;;;5.75;;
69779;SDS011;57052;55.602;38.096;2022-07-11T02:10:34;7.18;;;5.60;;
69779;SDS011;57052;55.602;38.096;2022-07-11T02:13:00;10.52;;;5.70;;
69779;SDS011;57052;55.602;38.096;2022-07-11T02:15:26;8.50;;;5.53;;
69779;SDS011;57052;55.602;38.096;2022-07-11T02:17:53;10.23;;;5.40;;
69779;SDS011;57052;55.602;38.096;2022-07-11T02:20:19;7.55;;;5.70;;
69779;SDS011;57052;55.602;38.096;2022-07-11T02:22:45;7.65;;;5.40;;
69779;SDS011;57052;55.602;38.096;2022-07-11T02:25:11;6.88;;;5.10;;
69779;SDS011;57052;55.602;38.096;2022-07-11T02:27:37;7.25;;;5.50;;
69779;SDS011;57052;55.602;38.096;2022-07-11T02:30:03;7.72;;;5.30;;
69779;SDS011;57052;55.602;38.096;2022-07-11T02:32:29;8.88;;;5.65;;
69779;SDS011;57052;55.602;38.096;2022-07-11T02:34:55;6.22;;;5.13;;
69779;SDS011;57052;55.602;38.096;2022-07-11T02:37:20;10.73;;;5.38;;
69779;SDS011;57052;55.602;38.096;2022-07-11T02:39:46;7.30;;;5.32;;
69779;SDS011;57052;55.602;38.096;2022-07-11T02:42:12;7.13;;;5.20;;
69779;SDS011;57052;55.602;38.096;2022-07-11T02:44:38;9.18;;;5.43;;
69779;SDS011;57052;55.602;38.096;2022-07-11T02:47:03;7.20;;;5.30;;
69779;SDS011;57052;55.602;38.096;2022-07-11T02:49:29;8.68;;;4.68;;
69779;SDS011;57052;55.602;38.096;2022-07-11T02:51:58;10.00;;;5.53;;
69779;SDS011;57052;55.602;38.096;2022-07-11T02:54:24;8.48;;;5.13;;
69779;SDS011;57052;55.602;38.096;2022-07-11T02:56:50;7.63;;;5.10;;
69779;SDS011;57052;55.602;38.096;2022-07-11T02:59:15;5.38;;;4.60;;
69779;SDS011;57052;55.602;38.096;2022-07-11T03:01:41;7.40;;;5.20;;
69779;SDS011;57052;55.602;38.096;2022-07-11T03:04:10;6.90;;;4.90;;
69779;SDS011;57052;55.602;38.096;2022-07-11T03:06:36;10.32;;;6.05;;
69779;SDS011;57052;55.602;38.096;2022-07-11T03:09:04;6.95;;;5.38;;
69779;SDS011;57052;55.602;38.096;2022-07-11T03:11:33;7.03;;;4.93;;
69779;SDS011;57052;55.602;38.096;2022-07-11T03:13:59;8.15;;;5.15;;
69779;SDS011;57052;55.602;38.096;2022-07-11T03:16:26;8.52;;;5.10;;
69779;SDS011;57052;55.602;38.096;2022-07-11T03:18:52;6.30;;;4.60;;
69779;SDS011;57052;55.602;38.096;2022-07-11T03:21:18;6.05;;;4.93;;
69779;SDS011;57052;55.602;38.096;2022-07-11T03:23:43;8.98;;;5.15;;
69779;SDS011;57052;55.602;38.096;2022-07-11T03:26:09;9.27;;;5.32;;
69779;SDS011;57052;55.602;38.096;2022-07-11T03:28:34;7.18;;;4.80;;
69779;SDS011;57052;55.602;38.096;2022-07-11T03:31:00;6.20;;;5.10;;
69779;SDS011;57052;55.602;38.096;2022-07-11T03:33:26;9.98;;;5.50;;
69779;SDS011;57052;55.602;38.096;2022-07-11T03:35:53;7.03;;;4.93;;
69779;SDS011;57052;55.602;38.096;2022-07-11T03:38:19;6.70;;;5.10;;
69779;SDS011;57052;55.602;38.096;2022-07-11T03:40:45;6.43;;;5.10;;
69779;SDS011;57052;55.602;38.096;2022-07-11T03:43:12;7.47;;;5.00;;
69779;SDS011;57052;55.602;38.096;2022-07-11T03:45:38;9.23;;;5.90;;
69779;SDS011;57052;55.602;38.096;2022-07-11T03:48:04;6.78;;;5.18;;
69779;SDS011;57052;55.602;38.096;2022-07-11T03:50:30;8.07;;;5.75;;
69779;SDS011;57052;55.602;38.096;2022-07-11T03:52:56;8.25;;;5.70;;
69779;SDS011;57052;55.602;38.096;2022-07-11T03:55:22;10.10;;;5.22;;
69779;SDS011;57052;55.602;38.096;2022-07-11T03:57:48;9.95;;;6.00;;
69779;SDS011;57052;55.602;38.096;2022-07-11T04:00:14;7.20;;;5.82;;
69779;SDS011;57052;55.602;38.096;2022-07-11T04:02:40;7.65;;;5.18;;
69779;SDS011;57052;55.602;38.096;2022-07-11T04:05:05;6.53;;;5.28;;
69779;SDS011;57052;55.602;38.096;2022-07-11T04:07:31;7.45;;;5.05;;
69779;SDS011;57052;55.602;38.096;2022-07-11T04:09:57;9.77;;;5.75;;
69779;SDS011;57052;55.602;38.096;2022-07-11T04:12:23;11.18;;;6.10;;
69779;SDS011;57052;55.602;38.096;2022-07-11T04:14:49;6.95;;;5.20;;
69779;SDS011;57052;55.602;38.096;2022-07-11T04:17:15;6.32;;;5.28;;
69779;SDS011;57052;55.602;38.096;2022-07-11T04:19:41;7.47;;;5.53;;
69779;SDS011;57052;55.602;38.096;2022-07-11T04:22:09;7.95;;;5.30;;
69779;SDS011;57052;55.602;38.096;2022-07-11T04:24:35;11.48;;;5.40;;
69779;SDS011;57052;55.602;38.096;2022-07-11T04:27:00;7.53;;;5.18;;
69779;SDS011;57052;55.602;38.096;2022-07-11T04:29:26;6.05;;;5.38;;
69779;SDS011;57052;55.602;38.096;2022-07-11T04:31:52;8.80;;;5.50;;
69779;SDS011;57052;55.602;38.096;2022-07-11T04:34:17;8.00;;;5.20;;
69779;SDS011;57052;55.602;38.096;2022-07-11T04:36:44;6.82;;;5.40;;
69779;SDS011;57052;55.602;38.096;2022-07-11T04:39:10;6.43;;;5.07;;
69779;SDS011;57052;55.602;38.096;2022-07-11T04:41:36;8.25;;;5.40;;
69779;SDS011;57052;55.602;38.096;2022-07-11T04:44:02;8.13;;;5.40;;
69779;SDS011;57052;55.602;38.096;2022-07-11T04:46:28;6.90;;;5.18;;
69779;SDS011;57052;55.602;38.096;2022-07-11T04:48:54;6.43;;;5.50;;
69779;SDS011;57052;55.602;38.096;2022-07-11T04:51:20;7.15;;;5.00;;
69779;SDS011;57052;55.602;38.096;2022-07-11T04:53:46;9.02;;;5.22;;
69779;SDS011;57052;55.602;38.096;2022-07-11T04:56:12;7.07;;;5.18;;
69779;SDS011;57052;55.602;38.096;2022-07-11T04:58:39;8.20;;;4.93;;
69779;SDS011;57052;55.602;38.096;2022-07-11T05:01:04;10.07;;;5.13;;
69779;SDS011;57052;55.602;38.096;2022-07-11T05:03:30;10.30;;;5.53;;
69779;SDS011;57052;55.602;38.096;2022-07-11T05:05:57;9.98;;;5.20;;
69779;SDS011;57052;55.602;38.096;2022-07-11T05:08:23;6.50;;;5.00;;
69779;SDS011;57052;55.602;38.096;2022-07-11T05:10:49;7.18;;;5.32;;
69779;SDS011;57052;55.602;38.096;2022-07-11T05:13:14;7.28;;;5.47;;
69779;SDS011;57052;55.602;38.096;2022-07-11T05:15:40;6.50;;;5.35;;
69779;SDS011;57052;55.602;38.096;2022-07-11T05:18:09;9.63;;;5.53;;
69779;SDS011;57052;55.602;38.096;2022-07-11T05:20:34;7.65;;;5.20;;
69779;SDS011;57052;55.602;38.096;2022-07-11T05:23:00;9.00;;;5.47;;
69779;SDS011;57052;55.602;38.096;2022-07-11T05:25:26;9.13;;;5.60;;
69779;SDS011;57052;55.602;38.096;2022-07-11T05:27:51;7.65;;;6.38;;
69779;SDS011;57052;55.602;38.096;2022-07-11T05:30:18;9.05;;;5.90;;
69779;SDS011;57052;55.602;38.096;2022-07-11T05:32:43;8.45;;;5.60;;
69779;SDS011;57052;55.602;38.096;2022-07-11T05:35:09;7.55;;;5.50;;
69779;SDS011;57052;55.602;38.096;2022-07-11T05:37:35;6.38;;;5.03;;
69779;SDS011;57052;55.602;38.096;2022-07-11T05:40:01;7.78;;;5.18;;
69779;SDS011;57052;55.602;38.096;2022-07-11T05:42:28;9.25;;;5.75;;
69779;SDS011;57052;55.602;38.096;2022-07-11T05:44:54;7.07;;;5.00;;
69779;SDS011;57052;55.602;38.096;2022-07-11T05:47:20;9.18;;;5.47;;
69779;SDS011;57052;55.602;38.096;2022-07-11T05:49:45;8.57;;;4.93;;
69779;SDS011;57052;55.602;38.096;2022-07-11T05:52:11;6.85;;;5.15;;
69779;SDS011;57052;55.602;38.096;2022-07-11T05:54:36;7.97;;;5.05;;
69779;SDS011;57052;55.602;38.096;2022-07-11T05:57:02;6.35;;;5.47;;
69779;SDS011;57052;55.602;38.096;2022-07-11T05:59:28;6.68;;;5.90;;
69779;SDS011;57052;55.602;38.096;2022-07-11T06:01:54;8.00;;;5.00;;
69779;SDS011;57052;55.602;38.096;2022-07-11T06:04:20;7.40;;;5.53;;
69779;SDS011;57052;55.602;38.096;2022-07-11T06:06:46;6.07;;;5.45;;
69779;SDS011;57052;55.602;38.096;2022-07-11T06:09:12;6.90;;;5.47;;
69779;SDS011;57052;55.602;38.096;2022-07-11T06:11:37;5.78;;;4.93;;
69779;SDS011;57052;55.602;38.096;2022-07-11T06:14:03;8.00;;;5.40;;
69779;SDS011;57052;55.602;38.096;2022-07-11T06:16:31;6.05;;;5.45;;
69779;SDS011;57052;55.602;38.096;2022-07-11T06:18:57;6.82;;;4.93;;
69779;SDS011;57052;55.602;38.096;2022-07-11T06:21:23;9.02;;;5.55;;
69779;SDS011;57052;55.602;38.096;2022-07-11T06:23:49;6.70;;;5.40;;
69779;SDS011;57052;55.602;38.096;2022-07-11T06:26:15;8.20;;;5.30;;
69779;SDS011;57052;55.602;38.096;2022-07-11T06:28:41;5.68;;;4.85;;
69779;SDS011;57052;55.602;38.096;2022-07-11T06:31:07;5.95;;;5.05;;
69779;SDS011;57052;55.602;38.096;2022-07-11T06:33:33;13.32;;;5.10;;
69779;SDS011;57052;55.602;38.096;2022-07-11T06:36:00;9.45;;;5.50;;
69779;SDS011;57052;55.602;38.096;2022-07-11T06:38:29;6.10;;;4.75;;
69779;SDS011;57052;55.602;38.096;2022-07-11T06:40:55;5.90;;;4.88;;
69779;SDS011;57052;55.602;38.096;2022-07-11T06:43:21;7.65;;;5.40;;
69779;SDS011;57052;55.602;38.096;2022-07-11T06:45:47;6.47;;;5.25;;
69779;SDS011;57052;55.602;38.096;2022-07-11T06:48:13;6.53;;;5.15;;
69779;SDS011;57052;55.602;38.096;2022-07-11T06:50:40;6.50;;;4.80;;
69779;SDS011;57052;55.602;38.096;2022-07-11T06:53:06;6.93;;;4.78;;
69779;SDS011;57052;55.602;38.096;2022-07-11T06:55:32;6.03;;;5.18;;
69779;SDS011;57052;55.602;38.096;2022-07-11T06:57:59;6.13;;;5.13;;
69779;SDS011;57052;55.602;38.096;2022-07-11T07:00:25;7.65;;;5.00;;
69779;SDS011;57052;55.602;38.096;2022-07-11T07:02:53;7.40;;;5.18;;
69779;SDS011;57052;55.602;38.096;2022-07-11T07:05:24;6.38;;;4.60;;
69779;SDS011;57052;55.602;38.096;2022-07-11T07:07:50;7.80;;;5.18;;
69779;SDS011;57052;55.602;38.096;2022-07-11T07:10:17;5.55;;;4.90;;
69779;SDS011;57052;55.602;38.096;2022-07-11T07:12:42;6.38;;;5.32;;
69779;SDS011;57052;55.602;38.096;2022-07-11T07:15:09;7.03;;;5.20;;
69779;SDS011;57052;55.602;38.096;2022-07-11T07:17:36;7.10;;;5.32;;
69779;SDS011;57052;55.602;38.096;2022-07-11T07:20:03;7.30;;;5.15;;
69779;SDS011;57052;55.602;38.096;2022-07-11T07:22:29;9.43;;;5.30;;
69779;SDS011;57052;55.602;38.096;2022-07-11T07:24:56;8.50;;;5.63;;
69779;SDS011;57052;55.602;38.096;2022-07-11T07:27:22;8.40;;;5.60;;
69779;SDS011;57052;55.602;38.096;2022-07-11T07:29:47;8.75;;;5.53;;
69779;SDS011;57052;55.602;38.096;2022-07-11T07:32:14;6.32;;;5.32;;
69779;SDS011;57052;55.602;38.096;2022-07-11T07:34:39;6.10;;;5.50;;
69779;SDS011;57052;55.602;38.096;2022-07-11T07:37:05;6.22;;;5.40;;
69779;SDS011;57052;55.602;38.096;2022-07-11T07:39:31;7.32;;;5.70;;
69779;SDS011;57052;55.602;38.096;2022-07-11T07:41:57;6.15;;;5.55;;
69779;SDS011;57052;55.602;38.096;2022-07-11T07:44:22;7.65;;;5.90;;
69779;SDS011;57052;55.602;38.096;2022-07-11T07:46:48;8.13;;;5.72;;
69779;SDS011;57052;55.602;38.096;2022-07-11T07:49:14;6.63;;;5.55;;
69779;SDS011;57052;55.602;38.096;2022-07-11T07:51:39;7.93;;;5.57;;
69779;SDS011;57052;55.602;38.096;2022-07-11T07:54:05;7.25;;;5.60;;
69779;SDS011;57052;55.602;38.096;2022-07-11T07:56:31;5.93;;;5.18;;
69779;SDS011;57052;55.602;38.096;2022-07-11T07:58:57;6.82;;;5.75;;
69779;SDS011;57052;55.602;38.096;2022-07-11T08:01:22;6.32;;;5.03;;
69779;SDS011;57052;55.602;38.096;2022-07-11T08:04:03;6.07;;;5.25;;
69779;SDS011;57052;55.602;38.096;2022-07-11T08:06:30;7.80;;;5.10;;
69779;SDS011;57052;55.602;38.096;2022-07-11T08:08:57;7.15;;;5.25;;
69779;SDS011;57052;55.602;38.096;2022-07-11T08:11:26;7.00;;;4.88;;
69779;SDS011;57052;55.602;38.096;2022-07-11T08:13:52;7.93;;;5.35;;
69779;SDS011;57052;55.602;38.096;2022-07-11T08:16:19;8.05;;;5.45;;
69779;SDS011;57052;55.602;38.096;2022-07-11T08:18:45;6.78;;;4.95;;
69779;SDS011;57052;55.602;38.096;2022-07-11T08:21:12;9.30;;;4.82;;
69779;SDS011;57052;55.602;38.096;2022-07-11T08:23:37;6.97;;;5.03;;
69779;SDS011;57052;55.602;38.096;2022-07-11T08:26:03;6.60;;;4.80;;
69779;SDS011;57052;55.602;38.096;2022-07-11T08:28:29;6.30;;;4.78;;
69779;SDS011;57052;55.602;38.096;2022-07-11T08:30:55;6.47;;;4.85;;
69779;SDS011;57052;55.602;38.096;2022-07-11T08:33:21;6.35;;;4.60;;
69779;SDS011;57052;55.602;38.096;2022-07-11T08:35:47;7.28;;;5.28;;
69779;SDS011;57052;55.602;38.096;2022-07-11T08:38:13;5.70;;;5.07;;
69779;SDS011;57052;55.602;38.096;2022-07-11T08:40:41;8.00;;;5.18;;
69779;SDS011;57052;55.602;38.096;2022-07-11T08:43:15;8.32;;;4.68;;
69779;SDS011;57052;55.602;38.096;2022-07-11T08:45:42;7.60;;;4.80;;
69779;SDS011;57052;55.602;38.096;2022-07-11T08:48:08;8.70;;;5.15;;
69779;SDS011;57052;55.602;38.096;2022-07-11T08:50:34;10.48;;;5.20;;
69779;SDS011;57052;55.602;38.096;2022-07-11T08:53:02;5.72;;;4.80;;
69779;SDS011;57052;55.602;38.096;2022-07-11T08:55:29;6.68;;;4.30;;
69779;SDS011;57052;55.602;38.096;2022-07-11T08:57:55;6.85;;;4.82;;
69779;SDS011;57052;55.602;38.096;2022-07-11T09:00:20;7.30;;;5.05;;
69779;SDS011;57052;55.602;38.096;2022-07-11T09:02:47;5.10;;;4.60;;
69779;SDS011;57052;55.602;38.096;2022-07-11T09:05:13;6.05;;;5.00;;
69779;SDS011;57052;55.602;38.096;2022-07-11T09:07:46;5.18;;;4.68;;
69779;SDS011;57052;55.602;38.096;2022-07-11T09:10:14;5.10;;;4.60;;
69779;SDS011;57052;55.602;38.096;2022-07-11T09:13:00;6.82;;;4.93;;
69779;SDS011;57052;55.602;38.096;2022-07-11T09:18:04;8.80;;;5.32;;
69779;SDS011;57052;55.602;38.096;2022-07-11T09:20:51;6.55;;;5.40;;
69779;SDS011;57052;55.602;38.096;2022-07-11T09:23:37;6.38;;;4.70;;
69779;SDS011;57052;55.602;38.096;2022-07-11T09:26:22;7.30;;;4.70;;
69779;SDS011;57052;55.602;38.096;2022-07-11T09:29:02;6.57;;;4.60;;
69779;SDS011;57052;55.602;38.096;2022-07-11T09:31:30;7.50;;;4.20;;
69779;SDS011;57052;55.602;38.096;2022-07-11T09:34:01;9.18;;;4.30;;
69779;SDS011;57052;55.602;38.096;2022-07-11T09:36:38;6.95;;;4.25;;
69779;SDS011;57052;55.602;38.096;2022-07-11T09:39:20;6.00;;;4.63;;
69779;SDS011;57052;55.602;38.096;2022-07-11T09:41:51;5.85;;;4.53;;
69779;SDS011;57052;55.602;38.096;2022-07-11T09:44:18;6.20;;;4.22;;
69779;SDS011;57052;55.602;38.096;2022-07-11T09:46:57;6.60;;;4.20;;
69779;SDS011;57052;55.602;38.096;2022-07-11T09:49:32;5.30;;;4.20;;
69779;SDS011;57052;55.602;38.096;2022-07-11T09:52:09;7.50;;;4.32;;
69779;SDS011;57052;55.602;38.096;2022-07-11T09:54:58;7.50;;;4.00;;
69779;SDS011;57052;55.602;38.096;2022-07-11T09:57:30;5.50;;;4.40;;
69779;SDS011;57052;55.602;38.096;2022-07-11T10:00:08;6.72;;;4.18;;
69779;SDS011;57052;55.602;38.096;2022-07-11T10:02:37;12.02;;;4.05;;
69779;SDS011;57052;55.602;38.096;2022-07-11T10:05:02;5.22;;;4.00;;
69779;SDS011;57052;55.602;38.096;2022-07-11T10:07:30;6.35;;;4.35;;
69779;SDS011;57052;55.602;38.096;2022-07-11T10:09:56;6.90;;;3.90;;
69779;SDS011;57052;55.602;38.096;2022-07-11T10:12:26;6.85;;;4.10;;
69779;SDS011;57052;55.602;38.096;2022-07-11T10:14:57;7.00;;;4.57;;
69779;SDS011;57052;55.602;38.096;2022-07-11T10:17:26;5.65;;;4.05;;
69779;SDS011;57052;55.602;38.096;2022-07-11T10:20:23;5.97;;;4.18;;
69779;SDS011;57052;55.602;38.096;2022-07-11T10:22:56;7.78;;;4.32;;
69779;SDS011;57052;55.602;38.096;2022-07-11T10:31:24;6.45;;;3.97;;
69779;SDS011;57052;55.602;38.096;2022-07-11T10:34:04;10.90;;;4.20;;
69779;SDS011;57052;55.602;38.096;2022-07-11T10:36:39;6.35;;;3.80;;
69779;SDS011;57052;55.602;38.096;2022-07-11T10:39:16;4.97;;;3.92;;
69779;SDS011;57052;55.602;38.096;2022-07-11T10:41:46;5.30;;;3.90;;
69779;SDS011;57052;55.602;38.096;2022-07-11T10:44:11;4.20;;;3.67;;
69779;SDS011;57052;55.602;38.096;2022-07-11T10:46:37;6.63;;;4.28;;
69779;SDS011;57052;55.602;38.096;2022-07-11T10:51:50;6.75;;;4.00;;
69779;SDS011;57052;55.602;38.096;2022-07-11T10:56:56;6.25;;;3.78;;
69779;SDS011;57052;55.602;38.096;2022-07-11T11:02:24;4.60;;;3.70;;
69779;SDS011;57052;55.602;38.096;2022-07-11T11:04:54;4.82;;;3.75;;
69779;SDS011;57052;55.602;38.096;2022-07-11T11:23:25;5.38;;;3.42;;
69779;SDS011;57052;55.602;38.096;2022-07-11T11:25:52;7.50;;;3.22;;
69779;SDS011;57052;55.602;38.096;2022-07-11T11:28:22;7.57;;;3.03;;
69779;SDS011;57052;55.602;38.096;2022-07-11T11:30:54;6.85;;;3.17;;
69779;SDS011;57052;55.602;38.096;2022-07-11T11:33:25;6.47;;;3.20;;
69779;SDS011;57052;55.602;38.096;2022-07-11T11:36:04;5.03;;;3.00;;
69779;SDS011;57052;55.602;38.096;2022-07-11T11:38:37;7.50;;;3.20;;
69779;SDS011;57052;55.602;38.096;2022-07-11T11:41:04;7.47;;;3.28;;
69779;SDS011;57052;55.602;38.096;2022-07-11T11:43:33;7.75;;;3.10;;
69779;SDS011;57052;55.602;38.096;2022-07-11T11:46:00;6.95;;;3.30;;
69779;SDS011;57052;55.602;38.096;2022-07-11T11:48:30;8.88;;;3.10;;
69779;SDS011;57052;55.602;38.096;2022-07-11T11:53:45;8.10;;;3.38;;
69779;SDS011;57052;55.602;38.096;2022-07-11T11:56:16;7.00;;;3.30;;
69779;SDS011;57052;55.602;38.096;2022-07-11T11:58:46;10.40;;;3.10;;
69779;SDS011;57052;55.602;38.096;2022-07-11T12:01:14;5.63;;;3.35;;
69779;SDS011;57052;55.602;38.096;2022-07-11T12:03:51;10.55;;;3.55;;
69779;SDS011;57052;55.602;38.096;2022-07-11T12:06:23;5.78;;;3.08;;
69779;SDS011;57052;55.602;38.096;2022-07-11T12:08:59;4.57;;;2.90;;
69779;SDS011;57052;55.602;38.096;2022-07-11T12:11:26;6.53;;;2.65;;
69779;SDS011;57052;55.602;38.096;2022-07-11T12:13:56;7.78;;;3.00;;
69779;SDS011;57052;55.602;38.096;2022-07-11T12:16:23;12.20;;;3.53;;
69779;SDS011;57052;55.602;38.096;2022-07-11T12:19:14;10.65;;;3.25;;
69779;SDS011;57052;55.602;38.096;2022-07-11T12:21:44;7.05;;;3.38;;
69779;SDS011;57052;55.602;38.096;2022-07-11T12:24:12;5.47;;;2.90;;
69779;SDS011;57052;55.602;38.096;2022-07-11T12:26:41;10.75;;;3.78;;
69779;SDS011;57052;55.602;38.096;2022-07-11T12:34:08;5.28;;;3.15;;
69779;SDS011;57052;55.602;38.096;2022-07-11T12:36:34;10.48;;;3.35;;
69779;SDS011;57052;55.602;38.096;2022-07-11T12:39:02;6.55;;;3.50;;
69779;SDS011;57052;55.602;38.096;2022-07-11T12:41:29;7.95;;;3.20;;
69779;SDS011;57052;55.602;38.096;2022-07-11T12:43:56;9.00;;;3.45;;
69779;SDS011;57052;55.602;38.096;2022-07-11T12:46:40;8.02;;;3.45;;
69779;SDS011;57052;55.602;38.096;2022-07-11T12:49:08;6.55;;;3.47;;
69779;SDS011;57052;55.602;38.096;2022-07-11T12:54:06;6.80;;;3.40;;
69779;SDS011;57052;55.602;38.096;2022-07-11T12:56:36;5.93;;;3.40;;
69779;SDS011;57052;55.602;38.096;2022-07-11T12:59:03;8.77;;;3.67;;
69779;SDS011;57052;55.602;38.096;2022-07-11T13:01:31;7.32;;;3.45;;
69779;SDS011;57052;55.602;38.096;2022-07-11T13:03:58;8.27;;;3.78;;
69779;SDS011;57052;55.602;38.096;2022-07-11T13:06:24;9.35;;;3.47;;
69779;SDS011;57052;55.602;38.096;2022-07-11T13:09:09;6.20;;;3.50;;
69779;SDS011;57052;55.602;38.096;2022-07-11T13:11:38;8.68;;;3.33;;
69779;SDS011;57052;55.602;38.096;2022-07-11T13:14:04;6.22;;;3.40;;
69779;SDS011;57052;55.602;38.096;2022-07-11T13:16:49;6.40;;;3.60;;
69779;SDS011;57052;55.602;38.096;2022-07-11T13:19:15;5.28;;;3.25;;
69779;SDS011;57052;55.602;38.096;2022-07-11T13:21:40;7.32;;;3.83;;
69779;SDS011;57052;55.602;38.096;2022-07-11T13:24:06;7.75;;;3.22;;
69779;SDS011;57052;55.602;38.096;2022-07-11T13:26:32;6.30;;;3.00;;
69779;SDS011;57052;55.602;38.096;2022-07-11T13:28:58;6.47;;;3.03;;
69779;SDS011;57052;55.602;38.096;2022-07-11T13:31:24;5.03;;;3.25;;
69779;SDS011;57052;55.602;38.096;2022-07-11T13:33:50;7.05;;;3.10;;
69779;SDS011;57052;55.602;38.096;2022-07-11T13:36:16;8.65;;;3.25;;
69779;SDS011;57052;55.602;38.096;2022-07-11T13:38:42;6.20;;;3.08;;
69779;SDS011;57052;55.602;38.096;2022-07-11T13:41:08;6.32;;;2.97;;
69779;SDS011;57052;55.602;38.096;2022-07-11T13:43:34;8.50;;;3.40;;
69779;SDS011;57052;55.602;38.096;2022-07-11T13:46:00;6.40;;;2.70;;
69779;SDS011;57052;55.602;38.096;2022-07-11T13:48:26;8.23;;;3.08;;
69779;SDS011;57052;55.602;38.096;2022-07-11T13:50:52;6.22;;;2.85;;
69779;SDS011;57052;55.602;38.096;2022-07-11T13:53:18;5.22;;;3.17;;
69779;SDS011;57052;55.602;38.096;2022-07-11T13:55:44;6.55;;;2.92;;
69779;SDS011;57052;55.602;38.096;2022-07-11T13:58:09;7.25;;;2.80;;
69779;SDS011;57052;55.602;38.096;2022-07-11T14:00:51;5.38;;;2.90;;
69779;SDS011;57052;55.602;38.096;2022-07-11T14:03:17;6.68;;;3.10;;
69779;SDS011;57052;55.602;38.096;2022-07-11T14:05:43;6.20;;;2.75;;
69779;SDS011;57052;55.602;38.096;2022-07-11T14:08:09;5.82;;;2.90;;
69779;SDS011;57052;55.602;38.096;2022-07-11T14:10:35;5.05;;;2.67;;
69779;SDS011;57052;55.602;38.096;2022-07-11T14:13:01;6.75;;;2.63;;
69779;SDS011;57052;55.602;38.096;2022-07-11T14:15:27;6.65;;;3.10;;
69779;SDS011;57052;55.602;38.096;2022-07-11T14:17:52;4.72;;;2.83;;
69779;SDS011;57052;55.602;38.096;2022-07-11T14:20:18;7.78;;;2.60;;
69779;SDS011;57052;55.602;38.096;2022-07-11T14:22:43;7.75;;;2.75;;
69779;SDS011;57052;55.602;38.096;2022-07-11T14:25:09;10.43;;;3.40;;
69779;SDS011;57052;55.602;38.096;2022-07-11T14:27:36;6.10;;;3.03;;
69779;SDS011;57052;55.602;38.096;2022-07-11T14:30:05;3.47;;;2.78;;
69779;SDS011;57052;55.602;38.096;2022-07-11T14:32:33;5.43;;;2.58;;
69779;SDS011;57052;55.602;38.096;2022-07-11T14:34:59;6.40;;;3.03;;
69779;SDS011;57052;55.602;38.096;2022-07-11T14:37:24;5.60;;;2.80;;
69779;SDS011;57052;55.602;38.096;2022-07-11T14:39:51;5.88;;;3.00;;
69779;SDS011;57052;55.602;38.096;2022-07-11T14:42:17;6.03;;;3.20;;
69779;SDS011;57052;55.602;38.096;2022-07-11T14:44:43;8.63;;;3.20;;
69779;SDS011;57052;55.602;38.096;2022-07-11T14:47:08;4.75;;;2.92;;
69779;SDS011;57052;55.602;38.096;2022-07-11T14:49:34;6.30;;;2.80;;
69779;SDS011;57052;55.602;38.096;2022-07-11T14:52:02;7.70;;;3.22;;
69779;SDS011;57052;55.602;38.096;2022-07-11T14:54:31;6.47;;;3.28;;
69779;SDS011;57052;55.602;38.096;2022-07-11T14:56:57;7.35;;;3.50;;
69779;SDS011;57052;55.602;38.096;2022-07-11T14:59:22;10.05;;;3.55;;
69779;SDS011;57052;55.602;38.096;2022-07-11T15:01:48;5.50;;;3.08;;
69779;SDS011;57052;55.602;38.096;2022-07-11T15:04:14;6.75;;;3.38;;
69779;SDS011;57052;55.602;38.096;2022-07-11T15:06:42;11.27;;;3.70;;
69779;SDS011;57052;55.602;38.096;2022-07-11T15:09:26;7.03;;;3.50;;
69779;SDS011;57052;55.602;38.096;2022-07-11T15:12:10;5.30;;;3.63;;
69779;SDS011;57052;55.602;38.096;2022-07-11T15:14:53;7.25;;;3.28;;
69779;SDS011;57052;55.602;38.096;2022-07-11T15:17:19;5.78;;;3.30;;
69779;SDS011;57052;55.602;38.096;2022-07-11T15:19:46;6.43;;;3.50;;
69779;SDS011;57052;55.602;38.096;2022-07-11T15:22:11;6.30;;;4.13;;